Time;durP1;ratioP1;P1;durP2;ratioP2;P2;SDS_P1;SDS_P2;PMS_P1;PMS_P2;Temp;Humidity;BMP_temperature;BMP_pressure;BME280_temperature;BME280_humidity;BME280_pressure;Samples;Min_cycle;Max_cycle;Signal;HPM_P1;HPM_P2
2022/01/01 00:07:29;;;;;;;32.92;18.13;;;;;;;23.33;nan;100596.81;20481482;27;102324;-63
2022/01/01 00:17:29;;;;;;;27.70;16.05;;;;;;;23.34;nan;100594.03;20483849;28;100577;-62
2022/01/01 00:27:31;;;;;;;33.20;16.67;;;;;;;23.27;nan;100574.38;20478969;28;100672;-60
2022/01/01 00:37:32;;;;;;;24.27;15.77;;;;;;;23.13;nan;100564.94;20479876;28;98981;-60
2022/01/01 00:47:32;;;;;;;22.27;15.07;;;;;;;23.01;nan;100564.13;20506232;28;101018;-61
2022/01/01 00:57:33;;;;;;;27.67;15.32;;;;;;;22.89;nan;100573.06;20502966;28;98544;-61
2022/01/01 01:07:34;;;;;;;26.98;14.88;;;;;;;22.84;nan;100580.53;20500911;28;101904;-61
2022/01/01 01:17:35;;;;;;;23.45;16.10;;;;;;;22.79;nan;100572.97;20505185;28;101226;-61
2022/01/01 01:27:37;;;;;;;24.60;14.82;;;;;;;22.75;nan;100583.91;20500272;28;102746;-61
2022/01/01 01:37:37;;;;;;;20.93;14.87;;;;;;;22.70;nan;100585.13;20501886;28;103800;-61
2022/01/01 01:47:38;;;;;;;22.58;14.27;;;;;;;22.66;nan;100590.78;20498946;28;98351;-61
2022/01/01 01:57:41;;;;;;;19.77;13.90;;;;;;;22.62;nan;100590.19;20491250;28;100935;-61
2022/01/01 02:07:43;;;;;;;20.13;13.65;;;;;;;22.58;nan;100596.66;20488527;28;102601;-61
2022/01/01 02:17:45;;;;;;;20.35;13.80;;;;;;;22.53;nan;100604.97;20496576;28;101097;-61
2022/01/01 02:27:46;;;;;;;23.60;13.50;;;;;;;22.49;nan;100594.75;20486015;28;101813;-61
2022/01/01 02:37:47;;;;;;;20.15;13.05;;;;;;;22.45;nan;100594.16;20490587;28;102254;-61
2022/01/01 02:47:47;;;;;;;17.58;12.82;;;;;;;22.37;nan;100604.44;20495477;28;100265;-61
2022/01/01 02:57:48;;;;;;;18.33;12.98;;;;;;;22.34;nan;100602.91;20490851;28;99402;-61
2022/01/01 03:07:48;;;;;;;17.02;12.32;;;;;;;22.30;nan;100592.69;20486515;28;101639;-61
2022/01/01 03:17:50;;;;;;;15.75;11.32;;;;;;;22.25;nan;100590.41;20483392;28;100064;-61
2022/01/01 03:27:53;;;;;;;14.60;10.70;;;;;;;22.22;nan;100598.59;20483003;28;102601;-62
2022/01/01 03:37:55;;;;;;;14.98;11.00;;;;;;;22.23;nan;100598.47;20483216;28;98604;-62
2022/01/01 03:47:57;;;;;;;16.30;10.88;;;;;;;22.21;nan;100605.66;20480268;28;98903;-61
2022/01/01 03:57:59;;;;;;;15.02;9.98;;;;;;;22.15;nan;100592.94;20490058;28;102076;-60
2022/01/01 04:07:59;;;;;;;13.63;10.15;;;;;;;22.09;nan;100593.44;20492444;28;98754;-60
2022/01/01 04:18:08;;;;;;;12.82;9.10;;;;;;;22.06;nan;100583.13;20492522;28;101306;-61
2022/01/01 04:28:10;;;;;;;13.35;9.27;;;;;;;22.05;nan;100574.38;20496165;28;99577;-60
2022/01/01 04:38:25;;;;;;;12.13;8.52;;;;;;;22.00;nan;100596.81;20494463;28;100717;-61
2022/01/01 04:48:26;;;;;;;11.75;8.85;;;;;;;22.00;nan;100607.34;20495071;28;100052;-60
2022/01/01 04:58:26;;;;;;;10.43;7.97;;;;;;;21.97;nan;100615.47;20490360;28;98977;-61
2022/01/01 05:08:26;;;;;;;10.38;7.72;;;;;;;21.92;nan;100618.47;20496110;28;99285;-60
2022/01/01 05:18:28;;;;;;;9.63;7.50;;;;;;;21.99;nan;100642.56;20489279;28;102996;-61
2022/01/01 05:28:29;;;;;;;8.65;6.60;;;;;;;22.04;nan;100658.88;20495713;28;98925;-61
2022/01/01 05:38:30;;;;;;;9.15;6.70;;;;;;;22.09;nan;100661.16;20495064;28;101712;-61
2022/01/01 05:48:32;;;;;;;8.90;6.15;;;;;;;22.12;nan;100679.38;20493902;28;103792;-61
2022/01/01 05:58:33;;;;;;;;;;;;;;;22.17;nan;100701.81;20495088;28;98883;-61
2022/01/01 06:08:33;;;;;;;6.80;5.32;;;;;;;22.17;nan;100730.00;20486407;28;100679;-61
2022/01/01 06:18:36;;;;;;;6.67;5.40;;;;;;;22.17;nan;100748.47;20486477;28;101089;-61
2022/01/01 06:28:37;;;;;;;6.47;5.07;;;;;;;22.17;nan;100754.56;20482570;28;101727;-62
2022/01/01 06:38:42;;;;;;;7.47;5.30;;;;;;;22.19;nan;100755.28;20486886;28;103380;-61
2022/01/01 06:48:43;;;;;;;6.85;4.78;;;;;;;22.21;nan;100763.09;20492794;28;99993;-61
2022/01/01 06:58:44;;;;;;;6.38;5.18;;;;;;;22.22;nan;100773.50;20485097;28;103537;-61
2022/01/01 07:08:45;;;;;;;5.18;4.22;;;;;;;22.22;nan;100777.97;20488108;28;97813;-61
2022/01/01 07:18:48;;;;;;;5.38;4.43;;;;;;;22.25;nan;100780.34;20486809;28;101632;-61
2022/01/01 07:28:48;;;;;;;;;;;;;;;22.29;nan;100804.69;20487070;28;101560;-61
2022/01/01 07:38:49;;;;;;;7.10;3.90;;;;;;;22.25;nan;100817.28;20495655;28;98536;-61
2022/01/01 07:48:51;;;;;;;5.97;3.97;;;;;;;22.27;nan;100840.94;20490336;28;98472;-61
2022/01/01 07:58:51;;;;;;;4.97;3.88;;;;;;;22.28;nan;100827.63;20487807;28;103411;-61
2022/01/01 08:08:52;;;;;;;10.43;3.10;;;;;;;22.11;nan;100823.59;20473100;28;104614;-62
2022/01/01 08:18:52;;;;;;;6.32;2.97;;;;;;;22.25;nan;100819.09;20476558;28;103856;-61
2022/01/01 08:28:53;;;;;;;4.05;2.90;;;;;;;22.29;nan;100829.31;20495047;28;101733;-60
2022/01/01 08:38:53;;;;;;;6.03;3.03;;;;;;;22.34;nan;100839.50;20493558;28;102747;-62
2022/01/01 08:48:54;;;;;;;3.63;2.78;;;;;;;22.37;nan;100841.91;20492897;28;98488;-62
2022/01/01 08:58:56;;;;;;;4.70;2.70;;;;;;;22.37;nan;100842.75;20506734;28;100609;-63
2022/01/01 09:08:57;;;;;;;3.20;2.50;;;;;;;22.44;nan;100868.72;20506427;28;102155;-62
2022/01/01 09:18:58;;;;;;;4.60;2.33;;;;;;;22.44;nan;100884.53;20500584;28;101928;-61
2022/01/01 09:28:59;;;;;;;3.95;2.53;;;;;;;22.46;nan;100885.25;20493247;28;98691;-62
2022/01/01 09:39:03;;;;;;;6.53;2.60;;;;;;;22.49;nan;100890.31;20500939;28;100303;-62
2022/01/01 09:49:04;;;;;;;6.05;2.70;;;;;;;22.56;nan;100886.25;20501710;28;98904;-62
2022/01/01 09:59:06;;;;;;;8.45;3.40;;;;;;;22.62;nan;100890.22;20497429;28;98529;-62
2022/01/01 10:09:09;;;;;;;5.60;3.47;;;;;;;22.67;nan;100902.13;20497134;28;103073;-62
2022/01/01 10:19:09;;;;;;;12.48;5.45;;;;;;;22.75;nan;100903.34;20501422;28;99421;-63
2022/01/01 10:29:23;;;;;;;12.73;4.35;;;;;;;22.79;nan;100887.16;20495497;28;100764;-62
2022/01/01 10:39:24;;;;;;;10.82;3.58;;;;;;;22.82;nan;100908.03;20495949;28;97797;-62
2022/01/01 10:49:35;;;;;;;5.97;2.28;;;;;;;22.05;nan;100911.09;20498993;28;98027;-61
2022/01/01 10:59:40;;;;;;;9.55;2.63;;;;;;;21.88;nan;100904.41;20497716;28;102069;-62
2022/01/01 11:09:41;;;;;;;3.10;2.30;;;;;;;22.18;nan;100921.56;20482398;28;101370;-61
2022/01/01 11:19:43;;;;;;;2.70;1.67;;;;;;;22.26;nan;100905.19;20503995;28;98983;-61
2022/01/01 11:29:50;;;;;;;6.13;2.05;;;;;;;22.31;nan;100908.31;20502039;28;99387;-61
2022/01/01 11:39:55;;;;;;;3.55;1.77;;;;;;;22.30;nan;100904.84;20504052;28;98171;-61
2022/01/01 11:49:58;;;;;;;4.70;1.65;;;;;;;22.33;nan;100924.88;20496908;28;106249;-62
2022/01/01 12:00:09;;;;;;;4.97;1.70;;;;;;;22.37;nan;100927.19;20427935;28;102379;-61
2022/01/01 12:10:11;;;;;;;6.00;2.03;;;;;;;22.42;nan;100947.13;20404453;28;102612;-61
2022/01/01 12:20:21;;;;;;;4.33;2.10;;;;;;;22.41;nan;100943.66;20406441;28;98520;-61
2022/01/01 12:30:37;;;;;;;6.18;1.70;;;;;;;22.47;nan;100955.56;20467446;28;97666;-62
2022/01/01 12:41:07;;;;;;;5.40;1.67;;;;;;;22.48;nan;100955.44;20417422;27;98866;-62
2022/01/01 12:51:21;;;;;;;4.75;1.90;;;;;;;22.49;nan;100953.66;20403489;28;99580;-61
2022/01/01 13:01:29;;;;;;;8.63;1.83;;;;;;;22.48;nan;100965.16;20408041;28;102608;-61
2022/01/01 13:11:34;;;;;;;4.00;1.50;;;;;;;22.46;nan;100983.75;20414942;28;98859;-61
2022/01/01 13:21:35;;;;;;;3.47;1.52;;;;;;;22.45;nan;100989.97;20413814;28;102275;-61
2022/01/01 13:31:37;;;;;;;3.85;1.67;;;;;;;22.42;nan;100984.91;20448664;28;102268;-61
2022/01/01 13:41:37;;;;;;;9.32;2.10;;;;;;;22.38;nan;100994.03;20491940;28;101737;-60
2022/01/01 13:51:39;;;;;;;5.85;1.88;;;;;;;22.36;nan;100996.75;20501218;28;98799;-61
2022/01/01 14:01:43;;;;;;;4.07;1.45;;;;;;;22.42;nan;101006.03;20504202;28;97655;-62
2022/01/01 14:11:43;;;;;;;4.00;1.33;;;;;;;22.43;nan;101028.00;20503971;28;98724;-62
2022/01/01 14:21:46;;;;;;;3.38;1.50;;;;;;;22.35;nan;101016.16;20504832;28;99093;-61
2022/01/01 14:31:46;;;;;;;2.38;1.40;;;;;;;22.32;nan;101039.28;20501980;28;98764;-62
2022/01/01 14:41:47;;;;;;;4.63;1.48;;;;;;;22.27;nan;101036.97;20444046;28;98500;-62
2022/01/01 14:52:14;;;;;;;3.15;1.40;;;;;;;22.25;nan;101049.41;20435510;28;98556;-61
2022/01/01 15:02:16;;;;;;;3.58;1.33;;;;;;;22.27;nan;101046.69;20432408;28;98297;-60
2022/01/01 15:12:17;;;;;;;9.98;2.03;;;;;;;22.26;nan;101066.09;20389282;28;103056;-61
2022/01/01 15:22:58;;;;;;;6.07;1.75;;;;;;;22.20;nan;101080.56;20390568;28;101546;-62
2022/01/01 15:33:15;;;;;;;14.52;1.70;;;;;;;22.26;nan;101074.03;20397085;28;99113;-62
2022/01/01 15:43:17;;;;;;;3.33;1.52;;;;;;;22.35;nan;101068.94;20409487;28;102136;-61
2022/01/01 15:53:21;;;;;;;5.15;1.98;;;;;;;22.45;nan;101063.88;20411368;28;102642;-62
2022/01/01 16:03:43;;;;;;;2.65;1.58;;;;;;;22.50;nan;101061.72;20419284;28;99488;-62
2022/01/01 16:13:46;;;;;;;3.63;1.60;;;;;;;22.56;nan;101092.13;20443878;28;101882;-61
2022/01/01 16:23:47;;;;;;;8.70;1.60;;;;;;;22.55;nan;101096.53;20433246;28;98470;-62
2022/01/01 16:33:49;;;;;;;3.57;1.40;;;;;;;22.50;nan;101085.47;20412751;28;99887;-62
2022/01/01 16:44:10;;;;;;;2.53;1.57;;;;;;;22.47;nan;101082.22;20407500;28;98619;-62
2022/01/01 16:54:14;;;;;;;1.90;1.50;;;;;;;22.44;nan;101093.84;20408916;28;98673;-63
2022/01/01 17:04:22;;;;;;;2.63;1.50;;;;;;;22.46;nan;101094.59;20423870;28;102451;-61
2022/01/01 17:14:23;;;;;;;2.90;1.50;;;;;;;22.45;nan;101105.22;20394040;28;97894;-61
2022/01/01 17:24:37;;;;;;;1.90;1.30;;;;;;;22.42;nan;101106.28;20410023;28;102361;-61
2022/01/01 17:34:59;;;;;;;7.18;1.85;;;;;;;22.44;nan;101106.22;20412817;28;102582;-60
2022/01/01 17:45:00;;;;;;;4.00;1.23;;;;;;;22.42;nan;101108.09;20414262;28;99779;-61
2022/01/01 17:55:01;;;;;;;2.15;1.30;;;;;;;22.44;nan;101114.13;20415638;28;98921;-61
2022/01/01 18:05:04;;;;;;;1.70;1.25;;;;;;;22.44;nan;101103.56;20467024;28;98888;-62
2022/01/01 18:15:07;;;;;;;1.93;1.10;;;;;;;22.44;nan;101100.94;20442406;28;98555;-61
2022/01/01 18:25:14;;;;;;;8.38;1.40;;;;;;;22.42;nan;101095.75;20409884;28;98639;-60
2022/01/01 18:35:15;;;;;;;5.35;1.60;;;;;;;22.37;nan;101082.88;20417201;28;97866;-60
2022/01/01 18:45:16;;;;;;;5.22;1.40;;;;;;;22.36;nan;101094.38;20424595;28;101358;-60
2022/01/01 18:55:22;;;;;;;2.75;1.48;;;;;;;22.35;nan;101115.56;20398969;28;103048;-61
2022/01/01 19:05:28;;;;;;;3.35;1.73;;;;;;;22.33;nan;101128.03;20433096;28;99384;-61
2022/01/01 19:15:34;;;;;;;4.22;1.45;;;;;;;22.30;nan;101139.66;20405827;28;107851;-61
2022/01/01 19:25:38;;;;;;;3.65;1.55;;;;;;;22.30;nan;101152.84;20418146;28;97356;-61
2022/01/01 19:35:44;;;;;;;4.35;1.63;;;;;;;22.28;nan;101146.81;20423007;28;98100;-62
2022/01/01 19:45:47;;;;;;;3.90;1.30;;;;;;;22.26;nan;101138.16;20449616;28;100268;-62
2022/01/01 19:55:49;;;;;;;5.13;1.90;;;;;;;22.23;nan;101151.59;20406690;28;101984;-62
2022/01/01 20:05:52;;;;;;;3.05;1.67;;;;;;;22.21;nan;101162.22;20413252;28;99274;-62
2022/01/01 20:15:53;;;;;;;;;;;;;;;22.21;nan;101175.41;20434253;28;100588;-62
2022/01/01 20:25:55;;;;;;;4.85;2.67;;;;;;;21.98;nan;101169.09;20424609;28;102422;-61
2022/01/01 20:35:55;;;;;;;6.15;2.83;;;;;;;21.97;nan;101163.94;20422656;28;100029;-61
2022/01/01 20:45:57;;;;;;;4.72;2.40;;;;;;;21.98;nan;101190.19;20415588;28;98002;-62
2022/01/01 20:55:59;;;;;;;4.03;2.30;;;;;;;21.98;nan;101173.53;20449207;28;101494;-62
2022/01/01 21:06:07;;;;;;;3.85;2.58;;;;;;;21.97;nan;101172.69;20423739;28;102214;-61
2022/01/01 21:16:10;;;;;;;3.42;2.38;;;;;;;21.94;nan;101185.25;20415923;28;99571;-61
2022/01/01 21:26:11;;;;;;;4.15;2.60;;;;;;;21.93;nan;101163.28;20425364;28;99374;-61
2022/01/01 21:36:11;;;;;;;4.10;2.45;;;;;;;21.90;nan;101151.16;20425672;28;99408;-61
2022/01/01 21:46:14;;;;;;;4.43;2.15;;;;;;;21.85;nan;101153.28;20428114;28;100608;-61
2022/01/01 21:56:14;;;;;;;;;;;;;;;21.85;nan;101157.69;20445981;28;99030;-61
2022/01/01 22:06:15;;;;;;;3.50;3.03;;;;;;;21.80;nan;101165.94;20423248;28;99357;-62
2022/01/01 22:16:15;;;;;;;6.45;3.63;;;;;;;21.77;nan;101168.78;20422463;28;98031;-62
2022/01/01 22:26:16;;;;;;;4.72;3.40;;;;;;;21.75;nan;101179.44;20425237;28;97751;-61
2022/01/01 22:36:16;;;;;;;5.25;3.47;;;;;;;21.72;nan;101179.63;20418186;28;102215;-61
2022/01/01 22:46:17;;;;;;;5.85;3.60;;;;;;;21.71;nan;101199.00;20435240;28;101043;-61
2022/01/01 22:56:17;;;;;;;6.13;3.47;;;;;;;21.70;nan;101194.72;20413226;28;100276;-62
2022/01/01 23:06:18;;;;;;;4.40;3.40;;;;;;;21.71;nan;101188.47;20416134;28;99117;-60
2022/01/01 23:16:27;;;;;;;5.00;3.28;;;;;;;21.69;nan;101203.56;20445113;28;101296;-61
2022/01/01 23:26:50;;;;;;;4.95;3.67;;;;;;;21.69;nan;101186.88;20413630;28;101413;-61
2022/01/01 23:36:57;;;;;;;4.57;3.15;;;;;;;21.65;nan;101190.69;20408364;28;102008;-61
2022/01/01 23:47:02;;;;;;;5.53;3.40;;;;;;;21.63;nan;101176.75;20420369;28;99704;-61
2022/01/01 23:57:06;;;;;;;6.30;3.58;;;;;;;21.58;nan;101183.19;20409495;28;105075;-61
